Etusivu
METAR-TAF:

METAR-TAF

Lentoasemat :

Cleveland, Mississippi, Yhdysvallat

Leveyspiiri: 33-45-40N, Pituuspiiri: 090-45-28W, korkeus merenpinnasta: 42 m

Tämänhetkinen sää

Tämä raportti tehtiin 24 minuuttia sitten, kello 21.55 UTC
Tuuli 18 kn pohjoisen/luoteesta puuskistuen 22 kn:hen
Lämpötila 13°C
Kosteus 100%
Ilmanpaine 1016 hPa
Näkyvyys: 4.0 km
Hajonneita pilviä 300 ft:n korkeudessa
Pilvistä 900 ft:n korkeudessa
kovaa sadetta

METAR: KRNV 112155Z AUTO 34018G22KT 2 1/2SM +RA BKN003 OVC009 13/13 A3001 RMK AO2 T01340134

Aika: 16:19 (22:19 UTC)


TAF: puuttuu

Säähavainnot ja -ennusteet yli 4000 lentoasemalta (METAR- ja TAF-raportit).

Käytössä olevat sääasemat on merkitty karttaan keltaisilla ja punaisilla pisteillä.

Aseta hiiri pisteen päälle nähdäksesi sääaseman nimen.

Klikkaa sitten nähdäksesi säähavainnot ja -ennusteet.

Kartan vaihtaminen: klikkaa mustalla rastilla varustettuja vihreitä pisteitä, niin voit zoomata sisään; viivalla varustettua vihreää pistettä, niin voit zoomata ulos tai vihreitä nuolia, niin pääset viereisille kartoille.


METAR-TAF: